Time;durP1;ratioP1;P1;durP2;ratioP2;P2;SDS_P1;SDS_P2;PMS_P1;PMS_P2;Temp;Humidity;BMP_temperature;BMP_pressure;BME280_temperature;BME280_humidity;BME280_pressure;Samples;Min_cycle;Max_cycle;Signal;HPM_P1;HPM_P2
2022/10/04 00:02:19;;;;;;;10.60;6.73;;;8.60;38.60;;;;;;5046059;28;21083;-57
2022/10/04 00:04:51;;;;;;;15.07;7.83;;;8.50;38.80;;;;;;5043287;28;20864;-57
2022/10/04 00:07:22;;;;;;;15.07;8.87;;;8.50;39.00;;;;;;5039949;28;20458;-57
2022/10/04 00:09:52;;;;;;;12.60;8.63;;;8.50;39.20;;;;;;5042329;28;20920;-57
2022/10/04 00:12:22;;;;;;;14.13;7.40;;;8.60;38.90;;;;;;5041218;28;20478;-57
2022/10/04 00:14:52;;;;;;;15.13;8.30;;;8.60;38.80;;;;;;5041609;28;20465;-56
2022/10/04 00:17:25;;;;;;;18.00;10.13;;;8.60;38.70;;;;;;5042113;28;20580;-57
2022/10/04 00:19:54;;;;;;;24.27;11.10;;;8.60;38.50;;;;;;5042913;28;21036;-56
2022/10/04 00:22:23;;;;;;;19.80;11.20;;;8.70;38.50;;;;;;5047995;28;20462;-57
2022/10/04 00:25:17;;;;;;;23.07;9.87;;;8.70;38.80;;;;;;5042706;28;20454;-57
2022/10/04 00:28:28;;;;;;;15.20;8.87;;;8.70;39.00;;;;;;5046478;28;20466;-57
2022/10/04 00:31:20;;;;;;;16.53;9.67;;;8.70;38.80;;;;;;5046048;28;20547;-57
2022/10/04 00:33:48;;;;;;;13.63;9.30;;;8.70;39.10;;;;;;5036994;28;20557;-57
2022/10/04 00:36:58;;;;;;;16.90;10.00;;;8.70;38.90;;;;;;5039837;28;20463;-57
2022/10/04 00:39:40;;;;;;;38.37;11.83;;;8.70;39.10;;;;;;5018222;28;20498;-56
2022/10/04 00:42:31;;;;;;;23.13;9.90;;;8.70;39.40;;;;;;5039072;28;21001;-56
2022/10/04 00:45:01;;;;;;;15.67;10.00;;;8.60;39.50;;;;;;5047908;28;20454;-56
2022/10/04 00:47:33;;;;;;;11.83;8.10;;;8.60;39.30;;;;;;5040919;28;20465;-56
2022/10/04 00:50:08;;;;;;;13.50;8.60;;;8.60;39.40;;;;;;5046127;28;20483;-57
2022/10/04 00:52:40;;;;;;;17.40;7.90;;;8.60;39.30;;;;;;5043924;28;20480;-57
2022/10/04 00:55:09;;;;;;;13.87;8.03;;;8.60;39.40;;;;;;5040965;28;20463;-56
2022/10/04 00:57:41;;;;;;;12.33;7.60;;;8.60;39.50;;;;;;5047746;28;20498;-56
2022/10/04 01:00:13;;;;;;;20.63;6.93;;;8.60;39.70;;;;;;5048432;28;20861;-56
2022/10/04 01:02:51;;;;;;;11.27;6.80;;;8.50;39.80;;;;;;5038607;28;20478;-57
2022/10/04 01:05:21;;;;;;;16.87;6.23;;;8.50;40.00;;;;;;5045572;28;21069;-56
2022/10/04 01:07:51;;;;;;;15.10;6.20;;;8.40;39.70;;;;;;5041968;28;20722;-57
2022/10/04 01:10:21;;;;;;;10.67;6.20;;;8.30;39.50;;;;;;5043312;28;20478;-56
2022/10/04 01:12:54;;;;;;;16.67;7.00;;;8.30;39.60;;;;;;5040234;28;20579;-57
2022/10/04 01:15:28;;;;;;;12.43;7.20;;;8.30;39.70;;;;;;5040682;28;20458;-56
2022/10/04 01:18:14;;;;;;;30.33;7.37;;;8.30;40.00;;;;;;5043651;28;20473;-57
2022/10/04 01:20:52;;;;;;;19.80;6.93;;;8.30;40.00;;;;;;5044487;28;20458;-57
2022/10/04 01:23:35;;;;;;;12.53;6.73;;;8.20;39.90;;;;;;5041476;28;20952;-57
2022/10/04 01:26:04;;;;;;;19.13;5.40;;;8.20;40.10;;;;;;5037390;28;20484;-57
2022/10/04 01:28:32;;;;;;;11.77;7.30;;;8.10;39.90;;;;;;5044341;28;20928;-57
2022/10/04 01:30:59;;;;;;;15.47;6.17;;;8.10;40.00;;;;;;5038345;28;21340;-56
2022/10/04 01:33:26;;;;;;;11.63;5.97;;;8.00;39.90;;;;;;5046215;28;20570;-57
2022/10/04 01:35:52;;;;;;;16.00;7.90;;;8.00;39.90;;;;;;5038663;28;20463;-56
2022/10/04 01:38:19;;;;;;;9.33;5.90;;;7.90;39.80;;;;;;5044660;28;20469;-57
2022/10/04 01:40:54;;;;;;;13.97;7.97;;;7.90;39.70;;;;;;5039922;28;20471;-57
2022/10/04 01:43:26;;;;;;;13.53;6.60;;;7.90;39.50;;;;;;5040002;28;20450;-56
2022/10/04 01:45:58;;;;;;;9.60;6.03;;;7.90;39.30;;;;;;5034767;28;20468;-56
2022/10/04 01:48:30;;;;;;;10.10;4.97;;;7.90;39.10;;;;;;5041107;28;20494;-56
2022/10/04 01:51:03;;;;;;;8.57;4.90;;;7.90;39.00;;;;;;5042810;28;20886;-56
2022/10/04 01:53:32;;;;;;;9.80;4.83;;;7.80;38.80;;;;;;5042953;28;20484;-57
2022/10/04 01:56:08;;;;;;;6.20;4.50;;;7.80;38.80;;;;;;5042901;28;20473;-56
2022/10/04 01:58:42;;;;;;;6.60;4.87;;;7.80;38.70;;;;;;5040292;28;20462;-56
2022/10/04 02:01:13;;;;;;;6.80;4.83;;;7.70;38.50;;;;;;5043269;28;20466;-56
2022/10/04 02:03:44;;;;;;;9.33;5.40;;;7.60;38.40;;;;;;5044413;28;20454;-57
2022/10/04 02:06:13;;;;;;;7.63;4.90;;;7.60;38.20;;;;;;5046227;28;20450;-57
2022/10/04 02:08:46;;;;;;;9.10;5.53;;;7.60;38.20;;;;;;5042674;28;20479;-57
2022/10/04 02:11:19;;;;;;;10.43;5.80;;;7.60;38.30;;;;;;5041065;28;21013;-57
2022/10/04 02:13:48;;;;;;;9.00;5.67;;;7.50;38.40;;;;;;5040530;28;20541;-57
2022/10/04 02:16:16;;;;;;;7.60;5.20;;;7.50;38.40;;;;;;5038981;28;20985;-57
2022/10/04 02:18:45;;;;;;;10.30;6.60;;;7.50;38.50;;;;;;5041974;28;20565;-57
2022/10/04 02:21:13;;;;;;;14.17;6.33;;;7.50;38.50;;;;;;5042724;28;20467;-57
2022/10/04 02:23:42;;;;;;;8.67;5.50;;;7.50;38.60;;;;;;5040980;28;20462;-57
2022/10/04 02:26:10;;;;;;;9.90;5.73;;;7.50;38.60;;;;;;5040342;28;20566;-57
2022/10/04 02:28:38;;;;;;;8.10;5.50;;;7.50;38.50;;;;;;5039676;28;20617;-56
2022/10/04 02:33:56;;;;;;;11.90;6.30;;;7.50;38.40;;;;;;5035560;28;20937;-56
2022/10/04 02:36:26;;;;;;;10.80;6.87;;;7.50;38.50;;;;;;5040167;28;20472;-57
2022/10/04 02:38:59;;;;;;;13.27;6.37;;;7.60;39.00;;;;;;5044256;28;20488;-56
2022/10/04 02:41:31;;;;;;;14.77;8.30;;;7.60;39.20;;;;;;5041819;28;20477;-56
2022/10/04 02:44:04;;;;;;;10.60;7.10;;;7.60;39.30;;;;;;5042612;28;20462;-57
2022/10/04 02:46:36;;;;;;;18.90;7.33;;;7.70;39.40;;;;;;5036118;28;20465;-56
2022/10/04 02:49:10;;;;;;;13.10;7.17;;;7.70;39.60;;;;;;5041080;28;21421;-57
2022/10/04 02:51:44;;;;;;;11.53;7.27;;;7.70;39.60;;;;;;5040137;28;20980;-57
2022/10/04 02:54:17;;;;;;;14.37;6.83;;;7.70;39.80;;;;;;5044480;28;20461;-56
2022/10/04 02:56:44;;;;;;;13.67;5.83;;;7.70;39.70;;;;;;5039703;28;20477;-57
2022/10/04 02:59:16;;;;;;;8.93;5.77;;;7.70;39.70;;;;;;5038741;28;20481;-56
2022/10/04 03:01:50;;;;;;;14.00;5.67;;;7.60;39.40;;;;;;5040768;28;20486;-57
2022/10/04 03:04:19;;;;;;;19.63;5.90;;;7.60;39.40;;;;;;5041862;28;20451;-57
2022/10/04 03:06:47;;;;;;;15.33;5.53;;;7.50;39.30;;;;;;5037345;28;20517;-56
2022/10/04 03:09:16;;;;;;;12.00;5.73;;;7.50;39.40;;;;;;5038990;28;20482;-57
2022/10/04 03:11:45;;;;;;;21.77;6.70;;;7.40;39.60;;;;;;5044605;28;20891;-57
2022/10/04 03:14:17;;;;;;;10.47;6.30;;;7.30;39.70;;;;;;5030983;28;20546;-56
2022/10/04 03:16:47;;;;;;;10.20;5.93;;;7.30;39.80;;;;;;5035028;28;20458;-57
2022/10/04 03:19:16;;;;;;;10.43;6.40;;;7.20;39.90;;;;;;5040196;28;20478;-57
2022/10/04 03:21:45;;;;;;;9.83;6.00;;;7.20;39.90;;;;;;5041916;28;20462;-56
2022/10/04 03:24:19;;;;;;;10.43;6.73;;;7.20;40.70;;;;;;5038054;28;20454;-57
2022/10/04 03:26:48;;;;;;;14.93;6.70;;;7.20;40.10;;;;;;5042806;28;20454;-56
2022/10/04 03:29:18;;;;;;;9.63;7.40;;;7.20;40.10;;;;;;5043799;28;20485;-57
2022/10/04 03:31:48;;;;;;;14.10;6.60;;;7.20;39.90;;;;;;5038693;28;20474;-57
2022/10/04 03:34:17;;;;;;;10.80;6.50;;;7.20;39.90;;;;;;5035176;28;20489;-58
2022/10/04 03:36:45;;;;;;;10.30;6.27;;;7.20;39.90;;;;;;5033805;28;20494;-58
2022/10/04 03:39:17;;;;;;;10.50;6.40;;;7.20;39.90;;;;;;5041350;28;20482;-59
2022/10/04 03:41:44;;;;;;;9.30;6.20;;;7.20;40.00;;;;;;5032376;28;20505;-58
2022/10/04 03:44:17;;;;;;;11.77;6.47;;;7.20;39.80;;;;;;5038452;28;20586;-58
2022/10/04 03:46:45;;;;;;;23.90;5.93;;;7.20;39.90;;;;;;5042847;28;20504;-58
2022/10/04 03:49:16;;;;;;;15.00;6.40;;;7.20;40.00;;;;;;5036512;28;20486;-58
2022/10/04 03:51:48;;;;;;;12.40;6.13;;;7.20;40.10;;;;;;5041699;28;21072;-58
2022/10/04 03:54:21;;;;;;;9.60;6.40;;;7.20;40.10;;;;;;5042686;28;20480;-58
2022/10/04 03:56:50;;;;;;;15.27;6.40;;;7.20;40.20;;;;;;5039231;28;20565;-58
2022/10/04 03:59:19;;;;;;;14.10;6.90;;;7.20;40.50;;;;;;5034347;28;21005;-58
2022/10/04 04:01:49;;;;;;;17.87;6.70;;;7.20;40.50;;;;;;5040493;28;20474;-58
2022/10/04 04:04:23;;;;;;;16.87;7.27;;;7.20;40.70;;;;;;5033194;28;20468;-58
2022/10/04 04:06:59;;;;;;;17.57;6.20;;;7.10;40.80;;;;;;5033783;28;20465;-59
2022/10/04 04:09:37;;;;;;;23.20;6.50;;;7.10;41.10;;;;;;5034414;28;20474;-59
2022/10/04 04:12:09;;;;;;;22.73;7.63;;;7.10;41.40;;;;;;5036189;28;20992;-59
2022/10/04 04:14:40;;;;;;;20.50;6.27;;;7.00;41.70;;;;;;5037495;28;20465;-59
2022/10/04 04:17:30;;;;;;;17.27;7.43;;;7.00;41.90;;;;;;5042720;28;20450;-59
2022/10/04 04:19:59;;;;;;;22.47;6.70;;;6.90;42.30;;;;;;5037449;28;20998;-58
2022/10/04 04:22:30;;;;;;;14.90;6.60;;;6.90;42.50;;;;;;5039549;28;20454;-58
2022/10/04 04:24:58;;;;;;;17.10;7.10;;;6.90;42.70;;;;;;5044020;28;20607;-58
2022/10/04 04:27:26;;;;;;;14.50;6.70;;;6.90;42.80;;;;;;5039908;28;20458;-58
2022/10/04 04:29:54;;;;;;;14.43;6.80;;;6.80;42.60;;;;;;5043502;28;20489;-58
2022/10/04 04:32:27;;;;;;;10.90;6.63;;;6.80;42.70;;;;;;5036890;28;20485;-58
2022/10/04 04:34:59;;;;;;;10.23;6.07;;;6.80;42.80;;;;;;5039658;28;20976;-58
2022/10/04 04:37:26;;;;;;;18.17;6.87;;;6.80;42.70;;;;;;5042298;28;20664;-58
2022/10/04 04:39:55;;;;;;;11.90;6.13;;;6.80;42.80;;;;;;5043975;28;20486;-58
2022/10/04 04:42:29;;;;;;;11.40;6.27;;;6.90;43.00;;;;;;5043053;28;20464;-58
2022/10/04 04:44:59;;;;;;;12.57;6.10;;;6.90;43.10;;;;;;5042197;28;20450;-58
2022/10/04 04:47:32;;;;;;;14.33;6.70;;;6.90;43.00;;;;;;5040104;28;20492;-58
2022/10/04 04:50:05;;;;;;;12.93;7.00;;;6.90;42.90;;;;;;5044631;28;20474;-58
2022/10/04 04:52:32;;;;;;;10.90;5.97;;;7.00;42.90;;;;;;5037291;28;20515;-58
2022/10/04 04:55:00;;;;;;;13.70;5.90;;;7.00;43.00;;;;;;5041018;28;20462;-58
2022/10/04 04:57:27;;;;;;;11.93;5.60;;;7.10;42.80;;;;;;5039530;28;20454;-58
2022/10/04 04:59:58;;;;;;;16.67;6.17;;;7.10;42.60;;;;;;5038449;28;21054;-59
2022/10/04 05:02:30;;;;;;;14.67;5.20;;;7.10;42.50;;;;;;5042241;28;20856;-58
2022/10/04 05:05:21;;;;;;;13.40;5.30;;;7.20;42.60;;;;;;5046966;28;20458;-58
2022/10/04 05:07:48;;;;;;;17.30;5.70;;;7.20;42.70;;;;;;5057614;28;20458;-58
2022/10/04 05:10:28;;;;;;;21.90;5.47;;;7.20;42.10;;;;;;5041036;28;20479;-57
2022/10/04 05:12:55;;;;;;;20.53;6.00;;;7.20;42.20;;;;;;5043331;28;20498;-58
2022/10/04 05:15:23;;;;;;;19.50;5.53;;;7.10;42.10;;;;;;5051093;28;20508;-58
2022/10/04 05:17:50;;;;;;;27.13;6.33;;;7.20;41.90;;;;;;5049497;28;20969;-58
2022/10/04 05:20:18;;;;;;;23.93;5.00;;;7.20;41.70;;;;;;5047798;28;20571;-58
2022/10/04 05:22:48;;;;;;;27.27;5.93;;;7.10;41.80;;;;;;5044178;28;20943;-58
2022/10/04 05:25:25;;;;;;;8.50;5.00;;;7.10;42.60;;;;;;5045037;28;20462;-58
2022/10/04 05:27:54;;;;;;;10.50;5.83;;;7.00;41.90;;;;;;5041111;28;20464;-58
2022/10/04 05:30:37;;;;;;;18.83;4.90;;;7.00;42.00;;;;;;5039115;28;20478;-58
2022/10/04 05:33:07;;;;;;;13.40;5.63;;;7.00;42.30;;;;;;5044188;28;20845;-58
2022/10/04 05:35:45;;;;;;;9.60;5.70;;;7.10;42.20;;;;;;5044713;28;20458;-58
2022/10/04 05:38:18;;;;;;;24.90;6.00;;;7.00;42.20;;;;;;5044677;28;20488;-57
2022/10/04 05:40:52;;;;;;;12.13;5.43;;;7.10;42.00;;;;;;5035585;28;20465;-58
2022/10/04 05:43:29;;;;;;;14.40;5.67;;;7.10;41.90;;;;;;5054958;28;20454;-58
2022/10/04 05:46:31;;;;;;;10.57;6.73;;;7.10;42.00;;;;;;5035273;28;20556;-58
2022/10/04 05:49:05;;;;;;;7.83;5.00;;;7.20;42.00;;;;;;4942967;28;21129;-58
2022/10/04 05:51:36;;;;;;;14.67;6.03;;;7.20;41.70;;;;;;4947847;28;20485;-58
2022/10/04 05:54:04;;;;;;;23.37;6.67;;;7.20;42.00;;;;;;4996448;28;20583;-58
2022/10/04 05:57:07;;;;;;;8.93;5.40;;;7.30;42.20;;;;;;5045417;28;20461;-58
2022/10/04 05:59:55;;;;;;;22.10;6.10;;;7.30;42.50;;;;;;5037914;28;21081;-58
2022/10/04 06:02:35;;;;;;;31.13;7.80;;;7.40;42.30;;;;;;5034576;28;20877;-58
2022/10/04 06:05:11;;;;;;;19.33;5.80;;;7.50;42.30;;;;;;5045283;28;20453;-57
2022/10/04 06:07:42;;;;;;;14.00;5.30;;;7.50;42.10;;;;;;5047068;28;20825;-58
2022/10/04 06:10:39;;;;;;;25.80;7.27;;;7.60;41.90;;;;;;5047271;28;20489;-58
2022/10/04 06:13:21;;;;;;;23.83;5.40;;;7.70;41.80;;;;;;5033728;28;20489;-58
2022/10/04 06:15:59;;;;;;;20.90;4.67;;;7.70;41.50;;;;;;5035055;28;20466;-59
2022/10/04 06:19:04;;;;;;;31.63;5.27;;;7.80;41.00;;;;;;5045982;28;20450;-58
2022/10/04 06:21:36;;;;;;;19.83;6.33;;;7.90;41.00;;;;;;5010761;28;20458;-58
2022/10/04 06:24:10;;;;;;;18.17;5.40;;;7.90;40.60;;;;;;5041266;28;20497;-58
2022/10/04 06:26:42;;;;;;;18.13;5.10;;;8.00;40.60;;;;;;5047079;28;20458;-58
2022/10/04 06:29:14;;;;;;;8.93;4.80;;;8.00;40.30;;;;;;5039312;28;20502;-58
2022/10/04 06:32:15;;;;;;;17.73;5.20;;;8.10;40.10;;;;;;5042046;28;20480;-58
2022/10/04 06:35:10;;;;;;;10.77;4.20;;;8.10;40.00;;;;;;5039929;28;20478;-58
2022/10/04 06:37:58;;;;;;;8.10;4.37;;;8.20;39.70;;;;;;5040934;28;20555;-58
2022/10/04 06:41:00;;;;;;;12.03;4.70;;;8.20;39.60;;;;;;5045230;28;20478;-58
2022/10/04 06:43:45;;;;;;;16.13;5.80;;;8.30;39.50;;;;;;5038049;28;20458;-58
2022/10/04 06:46:16;;;;;;;13.50;4.73;;;8.30;39.10;;;;;;5047601;28;20497;-58
2022/10/04 06:49:12;;;;;;;17.83;5.93;;;8.40;39.00;;;;;;5047679;28;20971;-58
2022/10/04 06:52:01;;;;;;;7.27;4.63;;;8.50;39.10;;;;;;5052246;28;20497;-58
2022/10/04 06:54:44;;;;;;;12.43;5.20;;;8.50;38.80;;;;;;5038998;28;20482;-58
2022/10/04 06:57:40;;;;;;;21.13;4.90;;;8.60;38.70;;;;;;5040273;28;20465;-58
2022/10/04 07:00:11;;;;;;;15.47;4.50;;;8.70;38.60;;;;;;5036394;28;20478;-58
2022/10/04 07:02:41;;;;;;;17.50;5.63;;;8.80;38.50;;;;;;5045716;28;20501;-58
2022/10/04 07:05:17;;;;;;;17.70;5.40;;;8.90;38.20;;;;;;5044630;28;20460;-58
2022/10/04 07:07:49;;;;;;;11.57;4.87;;;9.00;37.90;;;;;;5047019;28;20965;-58
2022/10/04 07:10:29;;;;;;;15.93;4.67;;;9.10;37.70;;;;;;5046561;28;20478;-58
2022/10/04 07:13:10;;;;;;;14.10;4.95;;;9.10;37.30;;;;;;5047608;28;20520;-58
2022/10/04 07:15:46;;;;;;;12.50;4.70;;;9.20;37.00;;;;;;5042141;28;20999;-58
2022/10/04 07:18:20;;;;;;;18.57;5.23;;;9.20;37.00;;;;;;5047431;28;20451;-58
2022/10/04 07:20:49;;;;;;;14.10;4.67;;;9.30;37.10;;;;;;5052071;28;21060;-58
2022/10/04 07:23:30;;;;;;;15.23;4.80;;;9.40;36.80;;;;;;5049611;28;20464;-58
2022/10/04 07:26:03;;;;;;;15.23;5.30;;;9.50;36.90;;;;;;5039039;28;20468;-58
2022/10/04 07:31:24;;;;;;;9.93;4.87;;;9.70;36.90;;;;;;5036576;28;20469;-58
2022/10/04 07:33:55;;;;;;;26.77;4.93;;;9.80;36.80;;;;;;5044074;28;20962;-58
2022/10/04 07:36:26;;;;;;;18.40;4.60;;;9.90;36.50;;;;;;5045702;28;20966;-58
2022/10/04 07:38:59;;;;;;;12.97;4.40;;;9.90;35.70;;;;;;5043337;28;20481;-58
2022/10/04 07:41:29;;;;;;;57.47;6.30;;;9.90;35.50;;;;;;5046654;28;20458;-58
2022/10/04 07:44:01;;;;;;;13.10;4.70;;;10.00;35.00;;;;;;5045287;28;20454;-59
2022/10/04 07:46:48;;;;;;;12.93;4.90;;;10.00;35.10;;;;;;5046021;28;20975;-58
2022/10/04 07:49:16;;;;;;;13.03;4.70;;;10.10;35.30;;;;;;5029995;28;20478;-58
2022/10/04 07:52:05;;;;;;;16.93;5.77;;;10.20;35.20;;;;;;5048498;28;20462;-58
2022/10/04 07:54:41;;;;;;;12.73;5.00;;;10.30;35.70;;;;;;5033923;28;20485;-58
2022/10/04 07:57:17;;;;;;;16.70;4.63;;;10.40;35.50;;;;;;5049271;28;20458;-58
2022/10/04 07:59:53;;;;;;;8.00;5.23;;;10.70;35.30;;;;;;5041462;28;20481;-58
2022/10/04 08:02:31;;;;;;;9.63;5.00;;;11.00;34.70;;;;;;5043834;28;20469;-58
2022/10/04 08:05:11;;;;;;;13.03;5.07;;;11.20;34.50;;;;;;5049847;28;20930;-58
2022/10/04 08:07:49;;;;;;;12.23;7.80;;;11.30;33.20;;;;;;5048210;28;20816;-58
2022/10/04 08:10:27;;;;;;;9.43;5.47;;;11.20;32.40;;;;;;5048796;28;20488;-58
2022/10/04 08:13:00;;;;;;;9.90;5.20;;;11.20;32.40;;;;;;5044035;28;20472;-58
2022/10/04 08:15:38;;;;;;;13.83;6.13;;;11.10;32.30;;;;;;5046635;28;21040;-58
2022/10/04 08:18:20;;;;;;;14.27;7.83;;;11.10;32.70;;;;;;5043539;28;20833;-57
2022/10/04 08:20:54;;;;;;;38.70;12.90;;;11.00;32.90;;;;;;5038869;28;20844;-57
2022/10/04 08:23:39;;;;;;;13.80;7.70;;;11.00;33.00;;;;;;5044853;28;20477;-58
2022/10/04 08:26:28;;;;;;;15.40;7.20;;;11.00;33.00;;;;;;5046841;28;21002;-57
2022/10/04 08:31:59;;;;;;;8.93;6.17;;;11.10;33.50;;;;;;5044535;28;20481;-58
2022/10/04 08:34:43;;;;;;;8.07;5.87;;;11.10;33.60;;;;;;5046384;28;20918;-58
2022/10/04 08:37:23;;;;;;;11.57;6.30;;;11.10;33.80;;;;;;5053020;28;20454;-57
2022/10/04 08:40:03;;;;;;;25.10;6.60;;;11.20;33.80;;;;;;5043181;28;20540;-58
2022/10/04 08:43:09;;;;;;;7.33;5.20;;;11.30;33.40;;;;;;5040776;28;20469;-58
2022/10/04 08:46:04;;;;;;;14.53;5.30;;;11.30;33.20;;;;;;5042753;28;20461;-58
2022/10/04 08:49:01;;;;;;;10.47;5.77;;;11.30;33.10;;;;;;5042555;28;20553;-58
2022/10/04 08:52:07;;;;;;;8.33;5.30;;;11.30;32.80;;;;;;5048041;28;20458;-57
2022/10/04 08:55:11;;;;;;;6.90;4.60;;;11.20;33.00;;;;;;5048419;28;20851;-57
2022/10/04 08:58:12;;;;;;;8.00;5.53;;;11.30;33.30;;;;;;5043325;28;20469;-58
2022/10/04 09:00:58;;;;;;;7.00;4.70;;;11.40;33.20;;;;;;5041766;28;20465;-58
2022/10/04 09:04:20;;;;;;;7.70;4.77;;;11.50;33.30;;;;;;5041384;28;20847;-58
2022/10/04 09:06:56;;;;;;;7.40;4.90;;;11.70;33.30;;;;;;5044690;28;20535;-58
2022/10/04 09:09:47;;;;;;;8.00;4.93;;;12.20;32.40;;;;;;5044813;28;20470;-58
2022/10/04 09:12:49;;;;;;;7.93;4.97;;;12.70;31.20;;;;;;5039390;28;20817;-58
2022/10/04 09:15:52;;;;;;;11.60;6.77;;;13.50;30.40;;;;;;5045226;28;20568;-58
2022/10/04 09:18:54;;;;;;;7.67;4.53;;;15.20;27.20;;;;;;5036255;28;20474;-58
2022/10/04 09:21:37;;;;;;;8.80;4.83;;;16.90;21.10;;;;;;4997780;28;20463;-58
2022/10/04 09:24:32;;;;;;;6.83;4.50;;;19.00;16.70;;;;;;5043995;28;20840;-58
2022/10/04 09:27:10;;;;;;;9.87;5.13;;;20.10;12.90;;;;;;5048879;28;20458;-58
2022/10/04 09:30:11;;;;;;;5.87;3.83;;;20.10;11.70;;;;;;5044874;28;20556;-58
2022/10/04 09:32:57;;;;;;;6.10;4.53;;;20.00;11.50;;;;;;5021923;28;20474;-58
2022/10/04 09:36:15;;;;;;;6.83;5.00;;;19.90;11.90;;;;;;5040765;28;20481;-58
2022/10/04 09:39:17;;;;;;;10.00;5.70;;;19.60;11.70;;;;;;4984900;28;20488;-58
2022/10/04 09:42:05;;;;;;;7.00;4.90;;;19.40;12.60;;;;;;4980067;28;20499;-58
2022/10/04 09:45:04;;;;;;;11.13;7.07;;;19.20;12.80;;;;;;5037955;28;20469;-58
2022/10/04 09:47:37;;;;;;;16.30;9.03;;;19.00;13.40;;;;;;5037610;28;20869;-58
2022/10/04 09:50:30;;;;;;;8.87;6.20;;;19.10;14.20;;;;;;5040676;28;20474;-58
2022/10/04 09:53:12;;;;;;;7.87;5.23;;;19.50;13.70;;;;;;5046106;28;20490;-58
2022/10/04 09:55:54;;;;;;;8.93;5.10;;;20.30;12.80;;;;;;5047406;28;20489;-58
2022/10/04 09:58:45;;;;;;;7.50;4.33;;;20.70;12.50;;;;;;5047514;28;20461;-58
2022/10/04 10:01:21;;;;;;;7.70;4.90;;;20.60;12.20;;;;;;5041917;28;20471;-58
2022/10/04 10:04:21;;;;;;;7.63;4.67;;;20.50;12.60;;;;;;5038519;28;20509;-58
2022/10/04 10:07:18;;;;;;;7.00;4.60;;;20.70;12.70;;;;;;5040291;28;20466;-59
2022/10/04 10:16:10;;;;;;;6.97;4.90;;;20.90;12.40;;;;;;4940603;28;20483;-58
2022/10/04 10:18:48;;;;;;;6.80;4.70;;;22.30;11.70;;;;;;4941847;29;20494;-59
2022/10/04 10:21:33;;;;;;;7.73;5.00;;;23.60;9.10;;;;;;5000213;28;20885;-58
2022/10/04 10:24:22;;;;;;;6.73;4.43;;;24.80;7.00;;;;;;5040159;28;20465;-58
2022/10/04 10:26:56;;;;;;;7.27;4.90;;;26.80;4.30;;;;;;5007800;28;20465;-59
2022/10/04 10:29:47;;;;;;;9.70;5.40;;;28.50;1.30;;;;;;5046815;28;20704;-58
2022/10/04 10:32:47;;;;;;;7.10;5.03;;;30.00;1.00;;;;;;5039637;28;20474;-59
2022/10/04 10:35:33;;;;;;;9.93;5.60;;;30.90;1.00;;;;;;5033232;28;20483;-59
2022/10/04 10:38:18;;;;;;;6.50;4.97;;;30.90;1.00;;;;;;5036449;28;20831;-59
2022/10/04 10:41:15;;;;;;;7.90;5.13;;;30.70;1.00;;;;;;5041854;28;21202;-58
2022/10/04 10:44:08;;;;;;;7.63;5.90;;;30.50;1.00;;;;;;5045125;28;20509;-59
2022/10/04 10:46:50;;;;;;;6.73;4.27;;;29.80;1.00;;;;;;5044772;28;20466;-59
2022/10/04 10:49:45;;;;;;;7.33;4.60;;;29.30;1.00;;;;;;5040446;28;20506;-59
2022/10/04 10:52:43;;;;;;;6.40;4.40;;;29.30;1.00;;;;;;5041393;28;20455;-59
2022/10/04 10:55:31;;;;;;;6.17;4.10;;;28.90;1.00;;;;;;5036199;28;20474;-59
2022/10/04 10:58:35;;;;;;;6.83;4.60;;;28.60;1.00;;;;;;5040122;28;20477;-59
2022/10/04 11:01:20;;;;;;;7.60;4.20;;;28.50;1.00;;;;;;5042677;28;20476;-58
2022/10/04 11:04:14;;;;;;;9.67;4.80;;;28.70;1.00;;;;;;5036379;28;20453;-58
2022/10/04 11:07:21;;;;;;;6.70;4.57;;;28.90;1.00;;;;;;5038990;28;21007;-59
2022/10/04 11:10:22;;;;;;;7.17;5.00;;;28.70;1.00;;;;;;5004301;28;20477;-59
2022/10/04 11:13:08;;;;;;;6.40;5.10;;;28.60;1.00;;;;;;5032872;28;20477;-58
2022/10/04 11:16:08;;;;;;;8.80;5.67;;;28.60;1.00;;;;;;5036529;28;20506;-58
2022/10/04 11:19:06;;;;;;;8.50;5.13;;;28.70;1.00;;;;;;5024847;28;21008;-59
2022/10/04 11:22:09;;;;;;;7.70;4.67;;;28.30;1.00;;;;;;5031294;28;20518;-58
2022/10/04 11:25:05;;;;;;;7.03;4.40;;;28.10;1.10;;;;;;5041977;28;20454;-58
2022/10/04 11:27:47;;;;;;;6.70;4.33;;;27.80;1.00;;;;;;5034452;28;20463;-58
2022/10/04 11:30:22;;;;;;;8.73;4.30;;;27.60;1.00;;;;;;5045004;28;20857;-59
2022/10/04 11:33:29;;;;;;;7.90;4.27;;;27.10;2.30;;;;;;5042244;28;20460;-59
2022/10/04 11:36:24;;;;;;;6.60;3.90;;;26.70;2.80;;;;;;5043411;28;20482;-59
2022/10/04 11:39:01;;;;;;;8.37;4.93;;;26.30;3.70;;;;;;5041398;28;21585;-59
2022/10/04 11:41:46;;;;;;;6.17;4.07;;;25.90;3.80;;;;;;5049156;28;20814;-59
2022/10/04 11:44:51;;;;;;;9.50;4.73;;;25.50;5.00;;;;;;5047108;28;20453;-59
2022/10/04 11:47:35;;;;;;;5.97;3.97;;;25.10;5.20;;;;;;5047434;28;20535;-59
2022/10/04 11:50:27;;;;;;;7.63;4.77;;;24.50;6.60;;;;;;5050699;28;20474;-59
2022/10/04 11:53:25;;;;;;;6.27;4.30;;;24.10;6.80;;;;;;5046817;28;20472;-58
2022/10/04 11:56:16;;;;;;;5.97;4.27;;;23.80;8.10;;;;;;5041876;28;20474;-58
2022/10/04 11:59:04;;;;;;;7.47;4.30;;;23.70;8.30;;;;;;5041354;28;20531;-59
2022/10/04 12:01:52;;;;;;;15.40;5.13;;;23.50;9.00;;;;;;5039682;28;20474;-59
2022/10/04 12:04:54;;;;;;;7.47;4.43;;;23.30;9.00;;;;;;5037634;28;20486;-59
2022/10/04 12:07:32;;;;;;;8.50;4.30;;;23.20;9.70;;;;;;5039341;28;20488;-59
2022/10/04 12:10:11;;;;;;;7.20;4.90;;;22.90;9.60;;;;;;5043317;28;20523;-58
2022/10/04 12:13:00;;;;;;;8.73;4.50;;;22.80;9.70;;;;;;5048291;28;20460;-59
2022/10/04 12:16:01;;;;;;;8.07;4.20;;;22.70;10.10;;;;;;5007504;28;20509;-59
2022/10/04 12:19:05;;;;;;;6.00;3.67;;;22.30;8.60;;;;;;5029080;28;20969;-58
2022/10/04 12:22:00;;;;;;;6.50;3.67;;;21.80;9.30;;;;;;5041539;28;20457;-58
2022/10/04 12:24:47;;;;;;;7.30;4.03;;;21.50;10.30;;;;;;5040594;28;20462;-58
2022/10/04 12:27:42;;;;;;;7.50;4.07;;;21.30;11.20;;;;;;5048705;28;20458;-58
2022/10/04 12:30:29;;;;;;;7.33;3.93;;;21.20;11.10;;;;;;5040736;28;20490;-58
2022/10/04 12:33:10;;;;;;;8.87;3.50;;;21.00;11.40;;;;;;5038836;28;20489;-58
2022/10/04 12:35:49;;;;;;;6.90;4.00;;;20.80;11.70;;;;;;5044287;28;20508;-59
2022/10/04 12:38:26;;;;;;;6.33;4.30;;;20.60;12.20;;;;;;5043305;28;20974;-58
2022/10/04 12:41:03;;;;;;;6.53;3.70;;;20.40;12.30;;;;;;5045418;28;20466;-58
2022/10/04 12:43:37;;;;;;;8.30;3.87;;;20.20;12.60;;;;;;5046500;28;21322;-59
2022/10/04 12:46:17;;;;;;;6.50;3.90;;;20.00;13.10;;;;;;5044719;28;20523;-58
2022/10/04 12:49:02;;;;;;;9.30;3.50;;;19.80;13.50;;;;;;5043517;28;20478;-58
2022/10/04 12:51:43;;;;;;;5.80;3.77;;;19.70;13.90;;;;;;5045357;28;20549;-59
2022/10/04 12:54:23;;;;;;;7.20;3.80;;;19.50;14.50;;;;;;5045577;28;20994;-58
2022/10/04 12:56:58;;;;;;;7.03;3.80;;;19.50;15.10;;;;;;5041823;28;20853;-58
2022/10/04 12:59:40;;;;;;;8.30;3.60;;;19.40;13.80;;;;;;5043675;28;20484;-58
2022/10/04 13:02:31;;;;;;;5.53;3.37;;;19.30;14.60;;;;;;5045554;28;20484;-58
2022/10/04 13:05:02;;;;;;;5.40;3.00;;;19.30;14.50;;;;;;5026032;28;20455;-59
2022/10/04 13:07:47;;;;;;;6.90;3.37;;;19.20;14.80;;;;;;5040506;28;20455;-59
2022/10/04 13:10:26;;;;;;;7.37;3.20;;;19.10;15.50;;;;;;5044013;28;20500;-59
2022/10/04 13:13:39;;;;;;;8.50;3.80;;;19.10;16.30;;;;;;5043959;28;20454;-58
2022/10/04 13:16:21;;;;;;;5.63;3.63;;;19.10;15.90;;;;;;5027963;28;20488;-59
2022/10/04 13:18:57;;;;;;;6.80;3.50;;;19.00;15.50;;;;;;5035107;28;20906;-58
2022/10/04 13:22:01;;;;;;;6.30;3.10;;;18.90;16.10;;;;;;5044587;28;20445;-58
2022/10/04 13:24:53;;;;;;;7.67;3.90;;;18.90;16.80;;;;;;5033330;28;20459;-58
2022/10/04 13:27:29;;;;;;;6.90;3.60;;;18.80;17.00;;;;;;5045974;28;20987;-58
2022/10/04 13:30:01;;;;;;;6.03;3.50;;;18.70;17.10;;;;;;5044342;28;20513;-58
2022/10/04 13:32:40;;;;;;;6.27;3.60;;;18.60;17.10;;;;;;5046631;28;20844;-59
2022/10/04 13:35:16;;;;;;;7.07;3.90;;;18.50;17.10;;;;;;5042868;28;20543;-58
2022/10/04 13:37:54;;;;;;;6.23;3.67;;;18.40;17.40;;;;;;5043646;28;20471;-58
2022/10/04 13:40:41;;;;;;;8.17;4.00;;;18.40;17.60;;;;;;5044102;28;20485;-58
2022/10/04 13:43:29;;;;;;;8.57;3.60;;;18.30;17.70;;;;;;5050897;28;20457;-58
2022/10/04 13:46:06;;;;;;;6.27;3.73;;;18.30;17.80;;;;;;5043059;28;20485;-58
2022/10/04 13:48:50;;;;;;;7.00;3.67;;;18.30;18.10;;;;;;5040142;28;20540;-58
2022/10/04 13:51:42;;;;;;;7.43;3.30;;;18.20;18.40;;;;;;5040078;28;20470;-58
2022/10/04 13:57:19;;;;;;;7.80;4.17;;;18.10;19.00;;;;;;5044447;28;20477;-58
2022/10/04 13:59:51;;;;;;;9.60;4.17;;;18.00;19.20;;;;;;5034443;28;20896;-58
2022/10/04 14:02:44;;;;;;;7.27;3.90;;;17.90;19.40;;;;;;5037961;28;20484;-58
2022/10/04 14:05:50;;;;;;;6.30;3.53;;;17.90;19.50;;;;;;5034600;28;20449;-59
2022/10/04 14:08:40;;;;;;;6.30;3.53;;;17.80;20.00;;;;;;5043363;28;20453;-60
2022/10/04 14:11:25;;;;;;;7.53;4.10;;;17.80;20.00;;;;;;5039499;28;20458;-60
2022/10/04 14:14:22;;;;;;;6.37;3.30;;;17.70;20.60;;;;;;5042712;28;20458;-59